Aérodrome :
LOGIN :

S'inscrire | Disclaimer

   EN    FR    IT 

 










Légende :    VFR   VFR Marginal   IFR   IFR Intensif   IFR Très Intensif
Visi : 
Plafond : 
>= 8 km
>= 3000ft
5 à 8 km
1000 à 3000 ft
1500m à 5 km
500 à 1000 ft
800 à 1500m
200 à 500 ft
< 800m
< 200 ft
Symboles :   Orages  Brouillard  Fortes neiges  Fortes précipitations  Vent > 20 kt
SIGMETs :   Divers  Orages  Givrage  Turbulence  Onde Orograph.  Cendres Volcan.







- Altitude de l'aérodrome : 1058 ft
- Code IATA : SCN


EDDR - Saarbrücken

DERNIER METAR :
  • 171120Z 25005KT 220V280 9999 SCT007 BKN031 00/M01 Q1024 TEMPO BKN008

METARs EXPIRÉS :
  • 171050Z 24008KT 9999 -SN SCT008 BKN028 00/M02 Q1024 TEMPO BKN008
  • 171020Z 27007KT 9999 SCT008 BKN028 M00/M02 Q1024 TEMPO BKN008
  • 170950Z 25006KT 9999 SCT008 BKN030 M00/M02 Q1024 TEMPO BKN008
  • 170920Z 24007KT 9999 BKN008 BKN030 M00/M02 Q1024 BECMG SCT008
  • 170850Z 27005KT 9000 BKN006 M00/M02 Q1024 NOSIG

TAF TAF EDDR
Valide du 17 à 12h jusqu'au 18 à 12h UTC


171100Z 1712/1812 24008KT 9999 SCT008 BKN030
PROB30
TEMPO 1712/1724 BKN008
BECMG 1800/1802 4000 -SN BKN008
TEMPO 1802/1809 2000 SN OVC004
PROB30
TEMPO 1803/1807 0500 +SN VV001
Pas de NOTAMs connus pour ce terrain.



MET'MAP, la Météo Aéronautique d'un coup d'oeil ! - Copyright ORBIFLY Décembre 2007 - Disclaimer

ORBIFLY MET'MAP TEAM :

Programmation & Développement : Alexandra Zaïnal
Conception & Développement : Baudouin d'Aumeries
Co-Programmation & Développement : Marc-Olivier Méhu
Soutien technique & logistique : Manuel Goepfert

Contact : metmap@orbifly.com




SOURCES & CREDITS :

   NOAA